sensor_id;sensor_type;location;lat;lon;timestamp;pressure;altitude;pressure_sealevel;temperature;humidity
8627;BME280;4351;51.422;6.794;2022-10-16T00:00:46;103093.72;;;13.29;45.37
8627;BME280;4351;51.422;6.794;2022-10-16T00:03:14;103142.81;;;13.20;45.30
8627;BME280;4351;51.422;6.794;2022-10-16T00:05:44;103176.06;;;13.25;45.23
8627;BME280;4351;51.422;6.794;2022-10-16T00:08:13;103168.72;;;13.29;45.23
8627;BME280;4351;51.422;6.794;2022-10-16T00:10:42;103205.94;;;13.24;45.19
8627;BME280;4351;51.422;6.794;2022-10-16T00:13:13;103224.91;;;13.24;45.17
8627;BME280;4351;51.422;6.794;2022-10-16T00:15:43;103211.66;;;13.14;45.20
8627;BME280;4351;51.422;6.794;2022-10-16T00:18:21;103214.19;;;13.20;45.17
8627;BME280;4351;51.422;6.794;2022-10-16T00:20:50;103232.34;;;13.17;45.18
8627;BME280;4351;51.422;6.794;2022-10-16T00:23:21;103230.47;;;13.19;45.16
8627;BME280;4351;51.422;6.794;2022-10-16T00:25:59;103211.75;;;13.11;45.21
8627;BME280;4351;51.422;6.794;2022-10-16T00:28:27;103226.56;;;13.01;45.24
8627;BME280;4351;51.422;6.794;2022-10-16T00:30:56;103265.22;;;13.06;45.19
8627;BME280;4351;51.422;6.794;2022-10-16T00:33:26;103235.59;;;12.99;45.24
8627;BME280;4351;51.422;6.794;2022-10-16T00:35:57;103220.09;;;13.05;45.19
8627;BME280;4351;51.422;6.794;2022-10-16T00:38:35;103244.72;;;12.97;45.24
8627;BME280;4351;51.422;6.794;2022-10-16T00:41:06;103265.34;;;13.01;45.16
8627;BME280;4351;51.422;6.794;2022-10-16T00:43:39;103287.88;;;13.03;45.12
8627;BME280;4351;51.422;6.794;2022-10-16T00:46:13;103269.28;;;12.91;45.19
8627;BME280;4351;51.422;6.794;2022-10-16T00:49:00;103273.81;;;12.90;45.20
8627;BME280;4351;51.422;6.794;2022-10-16T00:51:33;103290.81;;;12.95;45.13
8627;BME280;4351;51.422;6.794;2022-10-16T00:54:04;103287.13;;;12.98;45.13
8627;BME280;4351;51.422;6.794;2022-10-16T00:56:34;103271.09;;;12.90;45.13
8627;BME280;4351;51.422;6.794;2022-10-16T00:59:08;103287.13;;;12.98;45.07
8627;BME280;4351;51.422;6.794;2022-10-16T01:01:42;103270.38;;;12.85;45.15
8627;BME280;4351;51.422;6.794;2022-10-16T01:04:10;103299.16;;;12.89;45.10
8627;BME280;4351;51.422;6.794;2022-10-16T01:06:43;103292.81;;;12.88;45.11
8627;BME280;4351;51.422;6.794;2022-10-16T01:09:20;103322.50;;;12.93;45.04
8627;BME280;4351;51.422;6.794;2022-10-16T01:12:02;103250.25;;;12.94;45.13
8627;BME280;4351;51.422;6.794;2022-10-16T01:14:42;103317.03;;;12.95;45.02
8627;BME280;4351;51.422;6.794;2022-10-16T01:17:17;103307.34;;;12.86;45.07
8627;BME280;4351;51.422;6.794;2022-10-16T01:20:04;103306.28;;;12.92;45.04
8627;BME280;4351;51.422;6.794;2022-10-16T01:22:43;103300.81;;;12.93;45.01
8627;BME280;4351;51.422;6.794;2022-10-16T01:25:27;103262.19;;;12.86;45.13
8627;BME280;4351;51.422;6.794;2022-10-16T01:28:05;103207.22;;;12.83;45.19
8627;BME280;4351;51.422;6.794;2022-10-16T01:30:36;103141.84;;;12.65;45.35
8627;BME280;4351;51.422;6.794;2022-10-16T01:33:10;103150.53;;;12.76;45.30
8627;BME280;4351;51.422;6.794;2022-10-16T01:35:47;103200.06;;;12.80;45.23
8627;BME280;4351;51.422;6.794;2022-10-16T01:38:23;103212.66;;;12.83;45.21
8627;BME280;4351;51.422;6.794;2022-10-16T01:41:00;103244.97;;;12.89;45.15
8627;BME280;4351;51.422;6.794;2022-10-16T01:43:33;103275.53;;;12.93;45.09
8627;BME280;4351;51.422;6.794;2022-10-16T01:46:03;103279.34;;;12.87;45.10
8627;BME280;4351;51.422;6.794;2022-10-16T01:48:32;103238.06;;;12.79;45.21
8627;BME280;4351;51.422;6.794;2022-10-16T01:51:05;103288.31;;;12.89;45.10
8627;BME280;4351;51.422;6.794;2022-10-16T01:53:36;103338.75;;;12.93;44.98
8627;BME280;4351;51.422;6.794;2022-10-16T01:56:07;103255.88;;;12.86;45.15
8627;BME280;4351;51.422;6.794;2022-10-16T01:58:48;103297.28;;;12.91;45.07
8627;BME280;4351;51.422;6.794;2022-10-16T02:01:19;103291.28;;;12.80;45.12
8627;BME280;4351;51.422;6.794;2022-10-16T02:03:52;103281.41;;;12.79;45.12
8627;BME280;4351;51.422;6.794;2022-10-16T02:06:21;103272.44;;;12.76;45.14
8627;BME280;4351;51.422;6.794;2022-10-16T02:08:50;103302.88;;;12.85;45.05
8627;BME280;4351;51.422;6.794;2022-10-16T02:11:18;103341.53;;;12.90;44.97
8627;BME280;4351;51.422;6.794;2022-10-16T02:13:53;103326.25;;;12.89;45.00
8627;BME280;4351;51.422;6.794;2022-10-16T02:16:31;103354.25;;;12.88;44.95
8627;BME280;4351;51.422;6.794;2022-10-16T02:19:02;103349.66;;;12.90;44.93
8627;BME280;4351;51.422;6.794;2022-10-16T02:21:40;103273.81;;;12.90;45.02
8627;BME280;4351;51.422;6.794;2022-10-16T02:24:16;103303.78;;;12.84;44.97
8627;BME280;4351;51.422;6.794;2022-10-16T02:26:51;103241.63;;;12.79;45.09
8627;BME280;4351;51.422;6.794;2022-10-16T02:29:24;103252.25;;;12.87;45.03
8627;BME280;4351;51.422;6.794;2022-10-16T02:31:57;103237.91;;;12.83;45.05
8627;BME280;4351;51.422;6.794;2022-10-16T02:34:29;103266.56;;;12.91;44.98
8627;BME280;4351;51.422;6.794;2022-10-16T02:37:01;103238.75;;;12.85;45.05
8627;BME280;4351;51.422;6.794;2022-10-16T02:39:34;103171.25;;;12.78;45.19
8627;BME280;4351;51.422;6.794;2022-10-16T02:42:03;103159.44;;;12.80;45.18
8627;BME280;4351;51.422;6.794;2022-10-16T02:44:32;103172.78;;;12.86;45.16
8627;BME280;4351;51.422;6.794;2022-10-16T02:47:01;103170.22;;;12.82;45.17
8627;BME280;4351;51.422;6.794;2022-10-16T02:49:29;103191.94;;;12.80;45.16
8627;BME280;4351;51.422;6.794;2022-10-16T02:51:57;103201.69;;;12.86;45.15
8627;BME280;4351;51.422;6.794;2022-10-16T02:54:25;103171.06;;;12.84;45.18
8627;BME280;4351;51.422;6.794;2022-10-16T02:56:54;103127.72;;;12.84;45.25
8627;BME280;4351;51.422;6.794;2022-10-16T02:59:24;103125.63;;;12.92;45.22
8627;BME280;4351;51.422;6.794;2022-10-16T03:01:54;103058.94;;;12.88;45.34
8627;BME280;4351;51.422;6.794;2022-10-16T03:04:22;103055.31;;;12.89;45.35
8627;BME280;4351;51.422;6.794;2022-10-16T03:06:50;103064.06;;;12.97;45.32
8627;BME280;4351;51.422;6.794;2022-10-16T03:09:18;103032.31;;;13.01;45.37
8627;BME280;4351;51.422;6.794;2022-10-16T03:11:47;102973.72;;;12.98;45.46
8627;BME280;4351;51.422;6.794;2022-10-16T03:14:15;102922.25;;;12.98;45.53
8627;BME280;4351;51.422;6.794;2022-10-16T03:16:45;102862.50;;;13.02;45.60
8627;BME280;4351;51.422;6.794;2022-10-16T03:19:27;102771.47;;;12.97;45.78
8627;BME280;4351;51.422;6.794;2022-10-16T03:21:55;102745.75;;;13.08;45.80
8627;BME280;4351;51.422;6.794;2022-10-16T03:24:24;102637.53;;;13.05;45.95
8627;BME280;4351;51.422;6.794;2022-10-16T03:26:52;102558.13;;;13.03;46.08
8627;BME280;4351;51.422;6.794;2022-10-16T03:29:20;102506.66;;;13.03;46.16
8627;BME280;4351;51.422;6.794;2022-10-16T03:31:48;102458.81;;;13.02;46.27
8627;BME280;4351;51.422;6.794;2022-10-16T03:34:19;102403.81;;;12.99;46.40
8627;BME280;4351;51.422;6.794;2022-10-16T03:36:49;102346.94;;;12.99;46.54
8627;BME280;4351;51.422;6.794;2022-10-16T03:39:18;102283.69;;;13.01;46.67
8627;BME280;4351;51.422;6.794;2022-10-16T03:41:46;102227.75;;;12.99;46.78
8627;BME280;4351;51.422;6.794;2022-10-16T03:44:14;102164.34;;;13.04;46.88
8627;BME280;4351;51.422;6.794;2022-10-16T03:46:45;102095.97;;;12.98;47.06
8627;BME280;4351;51.422;6.794;2022-10-16T03:49:16;102033.03;;;12.93;47.20
8627;BME280;4351;51.422;6.794;2022-10-16T03:52:14;101969.63;;;12.97;47.33
8627;BME280;4351;51.422;6.794;2022-10-16T03:54:44;101922.22;;;12.88;47.50
8627;BME280;4351;51.422;6.794;2022-10-16T03:57:12;101820.19;;;12.89;47.70
8627;BME280;4351;51.422;6.794;2022-10-16T03:59:41;101765.53;;;12.98;47.80
8627;BME280;4351;51.422;6.794;2022-10-16T04:02:09;101673.94;;;12.89;47.97
8627;BME280;4351;51.422;6.794;2022-10-16T04:04:37;101582.31;;;12.81;48.18
8627;BME280;4351;51.422;6.794;2022-10-16T04:07:15;101508.16;;;12.84;48.32
8627;BME280;4351;51.422;6.794;2022-10-16T04:09:56;101449.19;;;12.89;48.43
8627;BME280;4351;51.422;6.794;2022-10-16T04:12:25;101375.31;;;12.87;48.59
8627;BME280;4351;51.422;6.794;2022-10-16T04:14:54;101295.13;;;12.84;48.76
8627;BME280;4351;51.422;6.794;2022-10-16T04:17:22;101223.09;;;12.82;49.01
8627;BME280;4351;51.422;6.794;2022-10-16T04:19:52;101175.03;;;12.85;49.03
8627;BME280;4351;51.422;6.794;2022-10-16T04:22:22;101099.53;;;12.81;49.26
8627;BME280;4351;51.422;6.794;2022-10-16T04:24:53;101052.53;;;12.82;49.41
8627;BME280;4351;51.422;6.794;2022-10-16T04:27:22;100985.25;;;12.75;49.60
8627;BME280;4351;51.422;6.794;2022-10-16T04:29:51;100929.41;;;12.74;49.74
8627;BME280;4351;51.422;6.794;2022-10-16T04:32:19;100919.22;;;12.78;49.72
8627;BME280;4351;51.422;6.794;2022-10-16T04:34:54;100879.56;;;12.77;49.86
8627;BME280;4351;51.422;6.794;2022-10-16T04:37:32;100833.66;;;12.75;49.96
8627;BME280;4351;51.422;6.794;2022-10-16T04:40:00;100789.19;;;12.80;50.05
8627;BME280;4351;51.422;6.794;2022-10-16T04:42:29;100726.41;;;12.74;50.29
8627;BME280;4351;51.422;6.794;2022-10-16T04:44:57;100639.69;;;12.63;50.53
8627;BME280;4351;51.422;6.794;2022-10-16T04:47:25;100568.31;;;12.64;50.68
8627;BME280;4351;51.422;6.794;2022-10-16T04:49:54;100506.09;;;12.64;50.79
8627;BME280;4351;51.422;6.794;2022-10-16T04:52:23;100449.25;;;12.64;50.95
8627;BME280;4351;51.422;6.794;2022-10-16T04:54:54;100376.19;;;12.64;51.17
8627;BME280;4351;51.422;6.794;2022-10-16T04:57:27;100316.66;;;12.64;51.38
8627;BME280;4351;51.422;6.794;2022-10-16T04:59:56;100271.41;;;12.66;51.50
8627;BME280;4351;51.422;6.794;2022-10-16T05:02:24;100232.91;;;12.62;51.68
8627;BME280;4351;51.422;6.794;2022-10-16T05:04:53;100193.19;;;12.63;51.83
8627;BME280;4351;51.422;6.794;2022-10-16T05:07:21;100141.66;;;12.64;51.97
8627;BME280;4351;51.422;6.794;2022-10-16T05:09:50;100072.31;;;12.63;52.11
8627;BME280;4351;51.422;6.794;2022-10-16T05:12:22;100025.06;;;12.68;52.27
8627;BME280;4351;51.422;6.794;2022-10-16T05:14:50;99984.34;;;12.69;52.34
8627;BME280;4351;51.422;6.794;2022-10-16T05:17:18;99905.88;;;12.69;52.69
8627;BME280;4351;51.422;6.794;2022-10-16T05:19:46;99861.72;;;12.69;52.82
8627;BME280;4351;51.422;6.794;2022-10-16T05:22:42;99826.88;;;12.75;52.93
8627;BME280;4351;51.422;6.794;2022-10-16T05:25:11;99827.16;;;12.72;52.98
8627;BME280;4351;51.422;6.794;2022-10-16T05:27:40;99791.00;;;12.73;53.10
8627;BME280;4351;51.422;6.794;2022-10-16T05:30:09;99736.69;;;12.65;53.51
8627;BME280;4351;51.422;6.794;2022-10-16T05:32:38;99713.91;;;12.68;53.53
8627;BME280;4351;51.422;6.794;2022-10-16T05:35:07;99689.16;;;12.72;53.64
8627;BME280;4351;51.422;6.794;2022-10-16T05:37:39;99652.00;;;12.74;53.83
8627;BME280;4351;51.422;6.794;2022-10-16T05:40:09;99598.72;;;12.75;54.10
8627;BME280;4351;51.422;6.794;2022-10-16T05:42:38;99571.81;;;12.73;54.24
8627;BME280;4351;51.422;6.794;2022-10-16T05:45:11;99538.66;;;12.81;54.38
8627;BME280;4351;51.422;6.794;2022-10-16T05:47:41;99492.78;;;12.80;54.71
8627;BME280;4351;51.422;6.794;2022-10-16T05:50:09;99425.00;;;12.71;55.16
8627;BME280;4351;51.422;6.794;2022-10-16T05:52:37;99364.31;;;12.64;55.65
8627;BME280;4351;51.422;6.794;2022-10-16T05:55:06;99324.06;;;12.81;55.63
8627;BME280;4351;51.422;6.794;2022-10-16T05:57:43;99270.22;;;12.78;55.97
8627;BME280;4351;51.422;6.794;2022-10-16T06:00:13;99215.81;;;12.71;56.42
8627;BME280;4351;51.422;6.794;2022-10-16T06:02:42;99168.69;;;12.73;56.63
8627;BME280;4351;51.422;6.794;2022-10-16T06:05:10;99132.38;;;12.76;56.83
8627;BME280;4351;51.422;6.794;2022-10-16T06:07:38;99109.44;;;12.70;57.16
8627;BME280;4351;51.422;6.794;2022-10-16T06:10:07;99093.22;;;12.70;57.36
8627;BME280;4351;51.422;6.794;2022-10-16T06:12:36;99092.06;;;12.73;57.48
8627;BME280;4351;51.422;6.794;2022-10-16T06:15:05;99084.13;;;12.71;57.70
8627;BME280;4351;51.422;6.794;2022-10-16T06:17:35;99074.28;;;12.70;57.91
8627;BME280;4351;51.422;6.794;2022-10-16T06:20:06;99081.94;;;12.85;57.83
8627;BME280;4351;51.422;6.794;2022-10-16T06:22:37;99066.69;;;12.84;58.05
8627;BME280;4351;51.422;6.794;2022-10-16T06:25:06;99039.09;;;12.80;58.44
8627;BME280;4351;51.422;6.794;2022-10-16T06:27:39;99015.44;;;12.82;58.62
8627;BME280;4351;51.422;6.794;2022-10-16T06:30:33;98987.84;;;12.79;58.95
8627;BME280;4351;51.422;6.794;2022-10-16T06:33:02;98995.78;;;12.80;59.15
8627;BME280;4351;51.422;6.794;2022-10-16T06:35:31;99000.06;;;12.83;59.29
8627;BME280;4351;51.422;6.794;2022-10-16T06:37:59;98999.03;;;12.84;59.46
8627;BME280;4351;51.422;6.794;2022-10-16T06:40:53;98989.78;;;12.86;59.74
8627;BME280;4351;51.422;6.794;2022-10-16T06:43:21;98985.16;;;12.97;59.63
8627;BME280;4351;51.422;6.794;2022-10-16T06:45:51;98969.06;;;12.95;59.98
8627;BME280;4351;51.422;6.794;2022-10-16T06:48:22;98964.69;;;12.94;60.20
8627;BME280;4351;51.422;6.794;2022-10-16T06:51:01;98976.50;;;12.93;60.39
8627;BME280;4351;51.422;6.794;2022-10-16T06:53:31;98986.34;;;12.94;60.53
8627;BME280;4351;51.422;6.794;2022-10-16T06:56:16;98984.53;;;13.03;60.50
8627;BME280;4351;51.422;6.794;2022-10-16T06:58:45;98995.84;;;12.98;60.91
8627;BME280;4351;51.422;6.794;2022-10-16T07:02:10;98977.44;;;13.02;61.14
8627;BME280;4351;51.422;6.794;2022-10-16T07:08:13;98978.31;;;13.03;61.48
8627;BME280;4351;51.422;6.794;2022-10-16T07:10:47;98989.66;;;13.06;61.51
8627;BME280;4351;51.422;6.794;2022-10-16T07:13:18;99001.97;;;13.01;61.75
8627;BME280;4351;51.422;6.794;2022-10-16T07:16:05;98999.78;;;13.04;61.89
8627;BME280;4351;51.422;6.794;2022-10-16T07:18:38;98997.25;;;13.03;62.02
8627;BME280;4351;51.422;6.794;2022-10-16T07:21:11;98997.63;;;13.08;62.04
8627;BME280;4351;51.422;6.794;2022-10-16T07:23:52;98999.63;;;13.06;62.26
8627;BME280;4351;51.422;6.794;2022-10-16T07:26:59;98986.66;;;13.09;62.31
8627;BME280;4351;51.422;6.794;2022-10-16T07:29:33;98986.91;;;13.16;62.30
8627;BME280;4351;51.422;6.794;2022-10-16T07:32:20;98980.72;;;13.24;62.42
8627;BME280;4351;51.422;6.794;2022-10-16T07:34:57;98955.03;;;13.28;62.68
8627;BME280;4351;51.422;6.794;2022-10-16T07:37:33;98907.34;;;13.54;62.77
8627;BME280;4351;51.422;6.794;2022-10-16T07:40:36;98833.06;;;13.56;63.84
8627;BME280;4351;51.422;6.794;2022-10-16T07:43:48;98735.47;;;13.75;64.69
8627;BME280;4351;51.422;6.794;2022-10-16T07:46:30;98674.91;;;13.93;65.53
8627;BME280;4351;51.422;6.794;2022-10-16T07:49:00;98602.94;;;14.07;66.79
8627;BME280;4351;51.422;6.794;2022-10-16T07:51:31;98532.44;;;14.07;68.78
8627;BME280;4351;51.422;6.794;2022-10-16T07:53:59;98477.72;;;14.11;70.31
8627;BME280;4351;51.422;6.794;2022-10-16T07:56:34;98423.19;;;14.14;72.23
8627;BME280;4351;51.422;6.794;2022-10-16T07:59:09;98385.03;;;14.24;74.14
8627;BME280;4351;51.422;6.794;2022-10-16T08:01:39;98338.88;;;14.41;76.09
8627;BME280;4351;51.422;6.794;2022-10-16T08:04:09;98270.56;;;14.37;80.20
8627;BME280;4351;51.422;6.794;2022-10-16T08:06:40;98239.78;;;14.30;84.29
8627;BME280;4351;51.422;6.794;2022-10-16T08:09:20;98236.97;;;14.47;87.31
8627;BME280;4351;51.422;6.794;2022-10-16T08:11:59;98227.78;;;14.48;92.43
8627;BME280;4351;51.422;6.794;2022-10-16T08:14:31;98222.75;;;14.45;98.79
8627;BME280;4351;51.422;6.794;2022-10-16T08:16:59;98200.38;;;14.66;100.00
8627;BME280;4351;51.422;6.794;2022-10-16T08:19:33;98178.19;;;14.63;100.00
8627;BME280;4351;51.422;6.794;2022-10-16T08:22:03;98162.31;;;14.98;100.00
8627;BME280;4351;51.422;6.794;2022-10-16T08:24:34;98189.06;;;15.01;100.00
8627;BME280;4351;51.422;6.794;2022-10-16T08:27:08;98265.44;;;14.98;100.00
8627;BME280;4351;51.422;6.794;2022-10-16T08:29:36;98262.53;;;15.00;100.00
8627;BME280;4351;51.422;6.794;2022-10-16T08:32:05;98253.84;;;15.04;100.00
8627;BME280;4351;51.422;6.794;2022-10-16T08:34:34;98253.66;;;15.06;100.00
8627;BME280;4351;51.422;6.794;2022-10-16T08:37:06;98227.09;;;15.32;100.00
8627;BME280;4351;51.422;6.794;2022-10-16T08:39:48;98206.97;;;15.26;100.00
8627;BME280;4351;51.422;6.794;2022-10-16T08:42:29;98194.81;;;15.22;100.00
8627;BME280;4351;51.422;6.794;2022-10-16T08:45:12;98200.56;;;15.03;100.00
8627;BME280;4351;51.422;6.794;2022-10-16T08:47:51;98183.09;;;15.21;100.00
8627;BME280;4351;51.422;6.794;2022-10-16T08:50:36;98177.66;;;15.21;100.00
8627;BME280;4351;51.422;6.794;2022-10-16T08:53:06;98177.00;;;15.19;100.00
8627;BME280;4351;51.422;6.794;2022-10-16T08:55:41;98178.06;;;15.18;100.00
8627;BME280;4351;51.422;6.794;2022-10-16T08:58:19;98171.47;;;15.27;100.00
8627;BME280;4351;51.422;6.794;2022-10-16T09:00:50;98158.00;;;15.49;100.00
8627;BME280;4351;51.422;6.794;2022-10-16T09:03:49;98147.66;;;15.60;100.00
8627;BME280;4351;51.422;6.794;2022-10-16T09:07:02;98121.84;;;15.64;100.00
8627;BME280;4351;51.422;6.794;2022-10-16T09:09:43;98121.16;;;15.77;100.00
8627;BME280;4351;51.422;6.794;2022-10-16T09:12:22;98109.09;;;15.86;100.00
8627;BME280;4351;51.422;6.794;2022-10-16T09:15:04;98108.34;;;15.93;100.00
8627;BME280;4351;51.422;6.794;2022-10-16T09:17:41;98107.25;;;15.87;100.00
8627;BME280;4351;51.422;6.794;2022-10-16T09:20:28;98094.47;;;16.03;100.00
8627;BME280;4351;51.422;6.794;2022-10-16T09:23:14;98097.19;;;16.03;100.00
8627;BME280;4351;51.422;6.794;2022-10-16T09:25:46;98095.63;;;16.15;100.00
8627;BME280;4351;51.422;6.794;2022-10-16T09:28:18;98115.59;;;16.23;100.00
8627;BME280;4351;51.422;6.794;2022-10-16T09:30:52;98134.13;;;15.97;100.00
8627;BME280;4351;51.422;6.794;2022-10-16T09:33:24;98133.91;;;15.98;100.00
8627;BME280;4351;51.422;6.794;2022-10-16T09:36:03;98137.19;;;16.09;100.00
8627;BME280;4351;51.422;6.794;2022-10-16T09:38:35;98158.09;;;15.93;100.00
8627;BME280;4351;51.422;6.794;2022-10-16T09:41:15;98142.25;;;16.12;100.00
8627;BME280;4351;51.422;6.794;2022-10-16T09:43:48;98155.25;;;16.17;100.00
8627;BME280;4351;51.422;6.794;2022-10-16T09:46:29;98154.66;;;16.22;100.00
8627;BME280;4351;51.422;6.794;2022-10-16T09:49:20;98154.38;;;16.31;100.00
8627;BME280;4351;51.422;6.794;2022-10-16T09:51:50;98177.97;;;16.09;100.00
8627;BME280;4351;51.422;6.794;2022-10-16T09:54:26;98169.97;;;16.23;100.00
8627;BME280;4351;51.422;6.794;2022-10-16T09:57:21;98165.56;;;16.43;100.00
8627;BME280;4351;51.422;6.794;2022-10-16T10:00:21;98189.25;;;16.28;100.00
8627;BME280;4351;51.422;6.794;2022-10-16T10:02:51;98196.53;;;16.42;100.00
8627;BME280;4351;51.422;6.794;2022-10-16T10:05:21;98222.88;;;16.42;100.00
8627;BME280;4351;51.422;6.794;2022-10-16T10:07:55;98225.75;;;16.55;100.00
8627;BME280;4351;51.422;6.794;2022-10-16T10:10:26;98263.50;;;16.65;100.00
8627;BME280;4351;51.422;6.794;2022-10-16T10:13:17;98277.53;;;16.62;100.00
8627;BME280;4351;51.422;6.794;2022-10-16T10:15:47;98305.50;;;16.56;100.00
8627;BME280;4351;51.422;6.794;2022-10-16T10:18:22;98322.97;;;16.47;100.00
8627;BME280;4351;51.422;6.794;2022-10-16T10:21:05;98312.13;;;16.69;100.00
8627;BME280;4351;51.422;6.794;2022-10-16T10:23:34;98322.59;;;16.72;100.00
8627;BME280;4351;51.422;6.794;2022-10-16T10:26:10;98344.84;;;16.75;100.00
8627;BME280;4351;51.422;6.794;2022-10-16T10:29:02;98371.47;;;16.58;100.00
8627;BME280;4351;51.422;6.794;2022-10-16T10:31:43;98363.19;;;16.66;100.00
8627;BME280;4351;51.422;6.794;2022-10-16T10:34:32;98372.91;;;16.76;100.00
8627;BME280;4351;51.422;6.794;2022-10-16T10:37:09;98386.13;;;16.79;100.00
8627;BME280;4351;51.422;6.794;2022-10-16T10:39:49;98396.00;;;16.80;100.00
8627;BME280;4351;51.422;6.794;2022-10-16T10:42:30;98408.44;;;16.89;100.00
8627;BME280;4351;51.422;6.794;2022-10-16T10:45:22;98415.53;;;17.06;100.00
8627;BME280;4351;51.422;6.794;2022-10-16T10:48:12;98444.59;;;16.83;100.00
8627;BME280;4351;51.422;6.794;2022-10-16T10:50:51;98450.81;;;16.77;100.00
8627;BME280;4351;51.422;6.794;2022-10-16T10:53:36;98456.44;;;16.75;100.00
8627;BME280;4351;51.422;6.794;2022-10-16T10:56:18;98436.09;;;17.08;100.00
8627;BME280;4351;51.422;6.794;2022-10-16T10:59:00;98432.66;;;17.37;100.00
8627;BME280;4351;51.422;6.794;2022-10-16T11:01:56;98474.31;;;17.30;100.00
8627;BME280;4351;51.422;6.794;2022-10-16T11:04:48;98506.78;;;17.32;100.00
8627;BME280;4351;51.422;6.794;2022-10-16T11:07:25;98540.25;;;17.10;100.00
8627;BME280;4351;51.422;6.794;2022-10-16T11:09:59;98528.00;;;17.37;100.00
8627;BME280;4351;51.422;6.794;2022-10-16T11:12:36;98572.47;;;17.07;100.00
8627;BME280;4351;51.422;6.794;2022-10-16T11:15:14;98558.66;;;17.23;100.00
8627;BME280;4351;51.422;6.794;2022-10-16T11:17:48;98566.84;;;17.23;100.00
8627;BME280;4351;51.422;6.794;2022-10-16T11:20:22;98570.84;;;17.12;100.00
8627;BME280;4351;51.422;6.794;2022-10-16T11:22:58;98571.22;;;17.24;100.00
8627;BME280;4351;51.422;6.794;2022-10-16T11:25:31;98598.41;;;17.18;100.00
8627;BME280;4351;51.422;6.794;2022-10-16T11:28:03;98605.03;;;17.45;100.00
8627;BME280;4351;51.422;6.794;2022-10-16T11:30:41;98634.44;;;17.50;100.00
8627;BME280;4351;51.422;6.794;2022-10-16T11:33:28;98663.19;;;17.38;100.00
8627;BME280;4351;51.422;6.794;2022-10-16T11:36:09;98683.50;;;17.35;100.00
8627;BME280;4351;51.422;6.794;2022-10-16T11:38:48;98683.88;;;17.47;100.00
8627;BME280;4351;51.422;6.794;2022-10-16T11:41:27;98723.06;;;17.31;100.00
8627;BME280;4351;51.422;6.794;2022-10-16T11:44:13;98719.19;;;17.25;100.00
8627;BME280;4351;51.422;6.794;2022-10-16T11:46:49;98724.75;;;17.32;100.00
8627;BME280;4351;51.422;6.794;2022-10-16T11:50:02;98730.03;;;17.10;100.00
8627;BME280;4351;51.422;6.794;2022-10-16T11:52:36;98718.81;;;17.28;100.00
8627;BME280;4351;51.422;6.794;2022-10-16T11:55:34;98745.13;;;17.21;100.00
8627;BME280;4351;51.422;6.794;2022-10-16T11:58:22;98742.97;;;17.31;100.00
8627;BME280;4351;51.422;6.794;2022-10-16T12:00:57;98767.38;;;17.24;100.00
8627;BME280;4351;51.422;6.794;2022-10-16T12:03:36;98769.06;;;17.26;100.00
8627;BME280;4351;51.422;6.794;2022-10-16T12:06:25;98774.09;;;17.52;100.00
8627;BME280;4351;51.422;6.794;2022-10-16T12:08:59;98811.19;;;17.53;100.00
8627;BME280;4351;51.422;6.794;2022-10-16T12:11:38;98819.00;;;17.56;100.00
8627;BME280;4351;51.422;6.794;2022-10-16T12:14:20;98789.03;;;17.72;100.00
8627;BME280;4351;51.422;6.794;2022-10-16T12:16:55;98771.25;;;17.91;100.00
8627;BME280;4351;51.422;6.794;2022-10-16T12:19:27;98780.94;;;17.93;100.00
8627;BME280;4351;51.422;6.794;2022-10-16T12:22:17;98829.16;;;17.63;100.00
8627;BME280;4351;51.422;6.794;2022-10-16T12:24:51;98846.84;;;17.67;100.00
8627;BME280;4351;51.422;6.794;2022-10-16T12:27:25;98860.34;;;17.45;100.00
8627;BME280;4351;51.422;6.794;2022-10-16T12:30:00;98870.97;;;17.40;100.00
8627;BME280;4351;51.422;6.794;2022-10-16T12:33:00;98876.69;;;17.45;100.00
8627;BME280;4351;51.422;6.794;2022-10-16T12:37:09;98869.31;;;17.69;100.00
8627;BME280;4351;51.422;6.794;2022-10-16T12:39:44;98890.66;;;17.65;100.00
8627;BME280;4351;51.422;6.794;2022-10-16T12:42:30;98904.75;;;17.69;100.00
8627;BME280;4351;51.422;6.794;2022-10-16T12:45:24;98903.63;;;17.63;100.00
8627;BME280;4351;51.422;6.794;2022-10-16T12:47:56;98897.31;;;17.63;100.00
8627;BME280;4351;51.422;6.794;2022-10-16T12:50:31;98906.19;;;17.95;100.00
8627;BME280;4351;51.422;6.794;2022-10-16T12:53:01;98949.34;;;17.76;100.00
8627;BME280;4351;51.422;6.794;2022-10-16T12:55:35;98929.88;;;17.79;100.00
8627;BME280;4351;51.422;6.794;2022-10-16T12:58:22;98902.56;;;18.33;100.00
8627;BME280;4351;51.422;6.794;2022-10-16T13:01:03;98941.69;;;18.25;100.00
8627;BME280;4351;51.422;6.794;2022-10-16T13:03:49;98971.78;;;18.17;100.00
8627;BME280;4351;51.422;6.794;2022-10-16T13:06:33;98981.91;;;17.93;100.00
8627;BME280;4351;51.422;6.794;2022-10-16T13:09:34;98989.06;;;17.94;100.00
8627;BME280;4351;51.422;6.794;2022-10-16T13:12:18;98994.44;;;18.02;100.00
8627;BME280;4351;51.422;6.794;2022-10-16T13:18:00;99045.47;;;17.93;100.00
8627;BME280;4351;51.422;6.794;2022-10-16T13:20:35;99044.50;;;17.86;100.00
8627;BME280;4351;51.422;6.794;2022-10-16T13:23:17;99056.19;;;17.95;100.00
8627;BME280;4351;51.422;6.794;2022-10-16T13:26:01;99068.09;;;18.02;100.00
8627;BME280;4351;51.422;6.794;2022-10-16T13:28:37;99063.72;;;17.93;100.00
8627;BME280;4351;51.422;6.794;2022-10-16T13:31:15;99040.75;;;17.87;100.00
8627;BME280;4351;51.422;6.794;2022-10-16T13:34:00;99022.91;;;18.00;100.00
8627;BME280;4351;51.422;6.794;2022-10-16T13:36:43;99035.53;;;18.01;100.00
8627;BME280;4351;51.422;6.794;2022-10-16T13:39:23;99033.13;;;17.83;100.00
8627;BME280;4351;51.422;6.794;2022-10-16T13:42:02;98998.69;;;17.81;100.00
8627;BME280;4351;51.422;6.794;2022-10-16T13:44:42;98959.31;;;17.84;100.00
8627;BME280;4351;51.422;6.794;2022-10-16T13:47:23;98942.44;;;17.65;100.00
8627;BME280;4351;51.422;6.794;2022-10-16T13:50:05;98927.66;;;17.60;100.00
8627;BME280;4351;51.422;6.794;2022-10-16T13:52:35;98896.72;;;17.52;100.00
8627;BME280;4351;51.422;6.794;2022-10-16T13:55:18;98867.59;;;17.53;100.00
8627;BME280;4351;51.422;6.794;2022-10-16T13:57:53;98878.97;;;17.56;100.00
8627;BME280;4351;51.422;6.794;2022-10-16T14:00:36;98855.13;;;17.74;100.00
8627;BME280;4351;51.422;6.794;2022-10-16T14:03:13;98874.84;;;17.61;100.00
8627;BME280;4351;51.422;6.794;2022-10-16T14:05:56;98886.09;;;17.57;100.00